sensor_id;sensor_type;location;lat;lon;timestamp;temperature;humidity
25248;DHT22;13191;47.472;11.214;2022-10-26T00:00:37;8.30;99.90
25248;DHT22;13191;47.472;11.214;2022-10-26T00:03:02;8.40;99.90
25248;DHT22;13191;47.472;11.214;2022-10-26T00:05:28;8.40;99.90
25248;DHT22;13191;47.472;11.214;2022-10-26T00:07:56;8.40;99.90
25248;DHT22;13191;47.472;11.214;2022-10-26T00:10:21;8.40;99.90
25248;DHT22;13191;47.472;11.214;2022-10-26T00:12:48;8.50;99.90
25248;DHT22;13191;47.472;11.214;2022-10-26T00:15:14;8.40;99.90
25248;DHT22;13191;47.472;11.214;2022-10-26T00:17:39;8.50;99.90
25248;DHT22;13191;47.472;11.214;2022-10-26T00:20:05;8.50;99.90
25248;DHT22;13191;47.472;11.214;2022-10-26T00:22:31;8.50;99.90
25248;DHT22;13191;47.472;11.214;2022-10-26T00:24:56;8.60;99.90
25248;DHT22;13191;47.472;11.214;2022-10-26T00:27:21;8.60;99.90
25248;DHT22;13191;47.472;11.214;2022-10-26T00:29:47;8.60;99.90
25248;DHT22;13191;47.472;11.214;2022-10-26T00:32:12;8.60;99.90
25248;DHT22;13191;47.472;11.214;2022-10-26T00:34:38;8.70;99.90
25248;DHT22;13191;47.472;11.214;2022-10-26T00:37:03;8.60;99.90
25248;DHT22;13191;47.472;11.214;2022-10-26T00:39:29;8.60;99.90
25248;DHT22;13191;47.472;11.214;2022-10-26T00:41:54;8.60;99.90
25248;DHT22;13191;47.472;11.214;2022-10-26T00:47:04;8.70;99.90
25248;DHT22;13191;47.472;11.214;2022-10-26T00:49:29;8.80;99.90
25248;DHT22;13191;47.472;11.214;2022-10-26T00:51:55;8.70;99.90
25248;DHT22;13191;47.472;11.214;2022-10-26T00:54:20;8.80;99.90
25248;DHT22;13191;47.472;11.214;2022-10-26T00:56:47;8.70;99.90
25248;DHT22;13191;47.472;11.214;2022-10-26T00:59:14;8.80;99.90
25248;DHT22;13191;47.472;11.214;2022-10-26T01:01:40;8.80;99.90
25248;DHT22;13191;47.472;11.214;2022-10-26T01:04:07;8.90;99.90
25248;DHT22;13191;47.472;11.214;2022-10-26T01:06:33;8.90;99.90
25248;DHT22;13191;47.472;11.214;2022-10-26T01:08:59;9.00;99.90
25248;DHT22;13191;47.472;11.214;2022-10-26T01:11:25;8.90;99.90
25248;DHT22;13191;47.472;11.214;2022-10-26T01:13:51;9.00;99.90
25248;DHT22;13191;47.472;11.214;2022-10-26T01:24:45;9.10;99.90
25248;DHT22;13191;47.472;11.214;2022-10-26T01:32:13;9.10;99.90
25248;DHT22;13191;47.472;11.214;2022-10-26T01:34:44;9.10;99.90
25248;DHT22;13191;47.472;11.214;2022-10-26T01:37:12;9.10;99.90
25248;DHT22;13191;47.472;11.214;2022-10-26T01:39:51;9.10;99.90
25248;DHT22;13191;47.472;11.214;2022-10-26T01:42:17;9.10;99.90
25248;DHT22;13191;47.472;11.214;2022-10-26T01:44:47;9.10;99.90
25248;DHT22;13191;47.472;11.214;2022-10-26T01:47:14;9.10;99.90
25248;DHT22;13191;47.472;11.214;2022-10-26T01:49:41;9.20;99.90
25248;DHT22;13191;47.472;11.214;2022-10-26T01:52:08;9.20;99.90
25248;DHT22;13191;47.472;11.214;2022-10-26T01:54:34;9.10;99.90
25248;DHT22;13191;47.472;11.214;2022-10-26T01:57:01;9.10;99.90
25248;DHT22;13191;47.472;11.214;2022-10-26T01:59:30;9.10;99.90
25248;DHT22;13191;47.472;11.214;2022-10-26T02:09:52;9.20;99.90
25248;DHT22;13191;47.472;11.214;2022-10-26T02:15:16;9.10;99.90
25248;DHT22;13191;47.472;11.214;2022-10-26T02:17:48;9.10;99.90
25248;DHT22;13191;47.472;11.214;2022-10-26T02:20:23;9.10;99.90
25248;DHT22;13191;47.472;11.214;2022-10-26T02:22:50;9.10;99.90
25248;DHT22;13191;47.472;11.214;2022-10-26T02:25:19;9.20;99.90
25248;DHT22;13191;47.472;11.214;2022-10-26T02:27:47;9.30;99.90
25248;DHT22;13191;47.472;11.214;2022-10-26T02:30:13;9.30;99.90
25248;DHT22;13191;47.472;11.214;2022-10-26T02:32:40;9.40;99.90
25248;DHT22;13191;47.472;11.214;2022-10-26T02:35:07;9.40;99.90
25248;DHT22;13191;47.472;11.214;2022-10-26T02:37:33;9.40;99.90
25248;DHT22;13191;47.472;11.214;2022-10-26T02:40:00;9.50;99.90
25248;DHT22;13191;47.472;11.214;2022-10-26T02:42:26;9.50;99.90
25248;DHT22;13191;47.472;11.214;2022-10-26T02:44:53;9.50;99.90
25248;DHT22;13191;47.472;11.214;2022-10-26T02:47:22;9.50;99.90
25248;DHT22;13191;47.472;11.214;2022-10-26T02:49:48;9.60;99.90
25248;DHT22;13191;47.472;11.214;2022-10-26T02:52:18;9.60;99.90
25248;DHT22;13191;47.472;11.214;2022-10-26T02:57:15;9.50;99.90
25248;DHT22;13191;47.472;11.214;2022-10-26T02:59:41;9.40;99.90
25248;DHT22;13191;47.472;11.214;2022-10-26T03:02:07;9.50;99.90
25248;DHT22;13191;47.472;11.214;2022-10-26T03:04:34;9.50;99.90
25248;DHT22;13191;47.472;11.214;2022-10-26T03:07:00;9.50;99.90
25248;DHT22;13191;47.472;11.214;2022-10-26T03:09:25;9.60;99.90
25248;DHT22;13191;47.472;11.214;2022-10-26T03:11:52;9.50;99.90
25248;DHT22;13191;47.472;11.214;2022-10-26T03:14:17;9.50;99.90
25248;DHT22;13191;47.472;11.214;2022-10-26T03:16:43;9.50;99.90
25248;DHT22;13191;47.472;11.214;2022-10-26T03:19:08;9.50;99.90
25248;DHT22;13191;47.472;11.214;2022-10-26T03:21:34;9.60;99.90
25248;DHT22;13191;47.472;11.214;2022-10-26T03:23:59;9.60;99.90
25248;DHT22;13191;47.472;11.214;2022-10-26T03:26:25;9.60;99.90
25248;DHT22;13191;47.472;11.214;2022-10-26T03:28:50;9.60;99.90
25248;DHT22;13191;47.472;11.214;2022-10-26T03:31:16;9.60;99.90
25248;DHT22;13191;47.472;11.214;2022-10-26T03:33:41;9.60;99.90
25248;DHT22;13191;47.472;11.214;2022-10-26T03:36:07;9.60;99.90
25248;DHT22;13191;47.472;11.214;2022-10-26T03:38:32;9.60;99.90
25248;DHT22;13191;47.472;11.214;2022-10-26T03:40:58;9.70;99.90
25248;DHT22;13191;47.472;11.214;2022-10-26T03:43:23;9.70;99.90
25248;DHT22;13191;47.472;11.214;2022-10-26T03:45:49;9.60;99.90
25248;DHT22;13191;47.472;11.214;2022-10-26T03:48:14;9.60;99.90
25248;DHT22;13191;47.472;11.214;2022-10-26T03:50:40;9.60;99.90
25248;DHT22;13191;47.472;11.214;2022-10-26T03:53:05;9.70;99.90
25248;DHT22;13191;47.472;11.214;2022-10-26T03:55:31;9.70;99.90
25248;DHT22;13191;47.472;11.214;2022-10-26T03:57:56;9.70;99.90
25248;DHT22;13191;47.472;11.214;2022-10-26T04:00:22;9.80;99.90
25248;DHT22;13191;47.472;11.214;2022-10-26T04:02:57;9.80;99.90
25248;DHT22;13191;47.472;11.214;2022-10-26T04:05:23;9.80;99.90
25248;DHT22;13191;47.472;11.214;2022-10-26T04:07:56;9.90;99.90
25248;DHT22;13191;47.472;11.214;2022-10-26T04:10:22;9.90;99.90
25248;DHT22;13191;47.472;11.214;2022-10-26T04:12:47;9.90;99.90
25248;DHT22;13191;47.472;11.214;2022-10-26T04:15:13;9.90;99.90
25248;DHT22;13191;47.472;11.214;2022-10-26T04:17:38;9.90;99.90
25248;DHT22;13191;47.472;11.214;2022-10-26T04:20:04;9.90;99.90
25248;DHT22;13191;47.472;11.214;2022-10-26T04:22:29;9.90;99.90
25248;DHT22;13191;47.472;11.214;2022-10-26T04:24:55;9.90;99.90
25248;DHT22;13191;47.472;11.214;2022-10-26T04:27:21;9.90;99.90
25248;DHT22;13191;47.472;11.214;2022-10-26T04:29:46;9.90;99.90
25248;DHT22;13191;47.472;11.214;2022-10-26T04:32:11;9.90;99.90
25248;DHT22;13191;47.472;11.214;2022-10-26T04:34:37;9.90;99.90
25248;DHT22;13191;47.472;11.214;2022-10-26T04:37:02;10.00;99.90
25248;DHT22;13191;47.472;11.214;2022-10-26T04:39:28;10.00;99.90
25248;DHT22;13191;47.472;11.214;2022-10-26T04:41:53;10.00;99.90
25248;DHT22;13191;47.472;11.214;2022-10-26T04:44:19;10.10;99.90
25248;DHT22;13191;47.472;11.214;2022-10-26T04:46:44;10.00;99.90
25248;DHT22;13191;47.472;11.214;2022-10-26T04:49:10;10.00;99.90
25248;DHT22;13191;47.472;11.214;2022-10-26T04:51:35;10.00;99.90
25248;DHT22;13191;47.472;11.214;2022-10-26T04:54:01;9.90;99.90
25248;DHT22;13191;47.472;11.214;2022-10-26T04:56:28;9.80;99.90
25248;DHT22;13191;47.472;11.214;2022-10-26T04:58:53;9.80;99.90
25248;DHT22;13191;47.472;11.214;2022-10-26T05:01:19;9.80;99.90
25248;DHT22;13191;47.472;11.214;2022-10-26T05:03:47;9.90;99.90
25248;DHT22;13191;47.472;11.214;2022-10-26T05:06:13;9.90;99.90
25248;DHT22;13191;47.472;11.214;2022-10-26T05:08:38;10.00;99.90
25248;DHT22;13191;47.472;11.214;2022-10-26T05:11:04;10.00;99.90
25248;DHT22;13191;47.472;11.214;2022-10-26T05:13:29;10.00;99.90
25248;DHT22;13191;47.472;11.214;2022-10-26T05:15:54;10.00;99.90
25248;DHT22;13191;47.472;11.214;2022-10-26T05:18:20;10.00;99.90
25248;DHT22;13191;47.472;11.214;2022-10-26T05:20:45;10.00;99.90
25248;DHT22;13191;47.472;11.214;2022-10-26T05:23:14;10.00;99.90
25248;DHT22;13191;47.472;11.214;2022-10-26T05:25:42;9.90;99.90
25248;DHT22;13191;47.472;11.214;2022-10-26T05:28:08;10.00;99.90
25248;DHT22;13191;47.472;11.214;2022-10-26T05:30:36;10.00;99.90
25248;DHT22;13191;47.472;11.214;2022-10-26T05:33:02;10.00;99.90
25248;DHT22;13191;47.472;11.214;2022-10-26T05:35:28;10.00;99.90
25248;DHT22;13191;47.472;11.214;2022-10-26T05:37:53;10.10;99.90
25248;DHT22;13191;47.472;11.214;2022-10-26T05:40:19;10.10;99.90
25248;DHT22;13191;47.472;11.214;2022-10-26T05:42:44;10.10;99.90
25248;DHT22;13191;47.472;11.214;2022-10-26T05:45:10;10.20;99.90
25248;DHT22;13191;47.472;11.214;2022-10-26T05:47:37;10.20;99.90
25248;DHT22;13191;47.472;11.214;2022-10-26T05:50:03;10.30;99.90
25248;DHT22;13191;47.472;11.214;2022-10-26T05:52:28;10.20;99.90
25248;DHT22;13191;47.472;11.214;2022-10-26T05:54:54;10.10;99.90
25248;DHT22;13191;47.472;11.214;2022-10-26T05:57:19;10.00;99.90
25248;DHT22;13191;47.472;11.214;2022-10-26T05:59:45;9.90;99.90
25248;DHT22;13191;47.472;11.214;2022-10-26T06:04:42;9.80;99.90
25248;DHT22;13191;47.472;11.214;2022-10-26T06:07:15;9.80;99.90
25248;DHT22;13191;47.472;11.214;2022-10-26T06:09:41;9.80;99.90
25248;DHT22;13191;47.472;11.214;2022-10-26T06:12:07;9.90;99.90
25248;DHT22;13191;47.472;11.214;2022-10-26T06:14:33;10.00;99.90
25248;DHT22;13191;47.472;11.214;2022-10-26T06:19:46;10.10;99.90
25248;DHT22;13191;47.472;11.214;2022-10-26T06:22:27;10.20;99.90
25248;DHT22;13191;47.472;11.214;2022-10-26T06:25:03;10.20;99.90
25248;DHT22;13191;47.472;11.214;2022-10-26T06:30:20;10.20;99.90
25248;DHT22;13191;47.472;11.214;2022-10-26T06:32:47;10.30;99.90
25248;DHT22;13191;47.472;11.214;2022-10-26T06:35:18;10.30;99.90
25248;DHT22;13191;47.472;11.214;2022-10-26T06:37:45;10.40;99.90
25248;DHT22;13191;47.472;11.214;2022-10-26T06:40:14;10.40;99.90
25248;DHT22;13191;47.472;11.214;2022-10-26T06:42:40;10.40;99.90
25248;DHT22;13191;47.472;11.214;2022-10-26T06:45:09;10.50;99.90
25248;DHT22;13191;47.472;11.214;2022-10-26T06:47:37;10.50;99.90
25248;DHT22;13191;47.472;11.214;2022-10-26T06:52:37;10.60;99.90
25248;DHT22;13191;47.472;11.214;2022-10-26T06:55:04;10.50;99.90
25248;DHT22;13191;47.472;11.214;2022-10-26T06:57:33;10.50;99.90
25248;DHT22;13191;47.472;11.214;2022-10-26T07:00:01;10.50;99.90
25248;DHT22;13191;47.472;11.214;2022-10-26T07:02:27;10.60;99.90
25248;DHT22;13191;47.472;11.214;2022-10-26T07:04:53;10.60;99.90
25248;DHT22;13191;47.472;11.214;2022-10-26T07:09:44;10.70;99.90
25248;DHT22;13191;47.472;11.214;2022-10-26T07:12:09;10.60;99.90
25248;DHT22;13191;47.472;11.214;2022-10-26T07:14:35;10.60;99.90
25248;DHT22;13191;47.472;11.214;2022-10-26T07:17:00;10.60;99.90
25248;DHT22;13191;47.472;11.214;2022-10-26T07:19:26;10.60;99.90
25248;DHT22;13191;47.472;11.214;2022-10-26T07:21:54;10.60;99.90
25248;DHT22;13191;47.472;11.214;2022-10-26T07:24:21;10.60;99.90
25248;DHT22;13191;47.472;11.214;2022-10-26T07:26:47;10.60;99.90
25248;DHT22;13191;47.472;11.214;2022-10-26T07:29:12;10.60;99.90
25248;DHT22;13191;47.472;11.214;2022-10-26T07:31:38;10.70;99.90
25248;DHT22;13191;47.472;11.214;2022-10-26T07:34:03;10.70;99.90
25248;DHT22;13191;47.472;11.214;2022-10-26T07:36:29;10.70;99.90
25248;DHT22;13191;47.472;11.214;2022-10-26T07:38:56;10.70;99.90
25248;DHT22;13191;47.472;11.214;2022-10-26T07:41:22;10.70;99.90
25248;DHT22;13191;47.472;11.214;2022-10-26T07:43:47;10.80;99.90
25248;DHT22;13191;47.472;11.214;2022-10-26T07:46:15;10.80;99.90
25248;DHT22;13191;47.472;11.214;2022-10-26T07:48:40;10.80;99.90
25248;DHT22;13191;47.472;11.214;2022-10-26T07:51:06;10.80;99.90
25248;DHT22;13191;47.472;11.214;2022-10-26T07:53:31;10.90;99.90
25248;DHT22;13191;47.472;11.214;2022-10-26T07:55:57;10.90;99.90
25248;DHT22;13191;47.472;11.214;2022-10-26T07:58:23;10.90;99.90
25248;DHT22;13191;47.472;11.214;2022-10-26T08:00:50;10.90;99.90
25248;DHT22;13191;47.472;11.214;2022-10-26T08:03:16;10.90;99.90
25248;DHT22;13191;47.472;11.214;2022-10-26T08:05:42;11.00;99.90
25248;DHT22;13191;47.472;11.214;2022-10-26T08:08:07;11.00;99.90
25248;DHT22;13191;47.472;11.214;2022-10-26T08:10:33;11.10;99.90
25248;DHT22;13191;47.472;11.214;2022-10-26T08:12:58;11.10;99.90
25248;DHT22;13191;47.472;11.214;2022-10-26T08:15:24;11.20;99.90
25248;DHT22;13191;47.472;11.214;2022-10-26T08:17:49;11.20;99.90
25248;DHT22;13191;47.472;11.214;2022-10-26T08:20:15;11.30;99.90
25248;DHT22;13191;47.472;11.214;2022-10-26T08:22:40;11.30;99.90
25248;DHT22;13191;47.472;11.214;2022-10-26T08:25:06;11.30;99.90
25248;DHT22;13191;47.472;11.214;2022-10-26T08:27:31;11.30;99.90
25248;DHT22;13191;47.472;11.214;2022-10-26T08:29:57;11.40;99.90
25248;DHT22;13191;47.472;11.214;2022-10-26T08:32:22;11.40;99.90
25248;DHT22;13191;47.472;11.214;2022-10-26T08:34:48;11.50;99.90
25248;DHT22;13191;47.472;11.214;2022-10-26T08:37:13;11.50;99.90
25248;DHT22;13191;47.472;11.214;2022-10-26T08:39:39;11.60;99.90
25248;DHT22;13191;47.472;11.214;2022-10-26T08:42:15;11.60;99.90
25248;DHT22;13191;47.472;11.214;2022-10-26T08:44:45;11.70;99.90
25248;DHT22;13191;47.472;11.214;2022-10-26T08:47:21;11.80;99.90
25248;DHT22;13191;47.472;11.214;2022-10-26T08:52:14;11.90;99.90
25248;DHT22;13191;47.472;11.214;2022-10-26T08:54:43;11.90;99.90
25248;DHT22;13191;47.472;11.214;2022-10-26T08:57:12;11.80;99.90
25248;DHT22;13191;47.472;11.214;2022-10-26T09:02:23;11.80;99.90
25248;DHT22;13191;47.472;11.214;2022-10-26T09:04:49;11.90;99.90
25248;DHT22;13191;47.472;11.214;2022-10-26T09:12:38;12.00;99.90
25248;DHT22;13191;47.472;11.214;2022-10-26T09:17:40;12.10;99.90
25248;DHT22;13191;47.472;11.214;2022-10-26T09:20:12;12.10;99.90
25248;DHT22;13191;47.472;11.214;2022-10-26T09:22:49;12.10;99.90
25248;DHT22;13191;47.472;11.214;2022-10-26T09:25:20;12.10;99.90
25248;DHT22;13191;47.472;11.214;2022-10-26T09:27:46;12.20;99.90
25248;DHT22;13191;47.472;11.214;2022-10-26T09:30:14;12.20;99.90
25248;DHT22;13191;47.472;11.214;2022-10-26T09:32:45;12.30;99.90
25248;DHT22;13191;47.472;11.214;2022-10-26T09:37:57;12.40;99.90
25248;DHT22;13191;47.472;11.214;2022-10-26T09:40:28;12.40;99.90
25248;DHT22;13191;47.472;11.214;2022-10-26T09:42:59;12.40;99.90
25248;DHT22;13191;47.472;11.214;2022-10-26T09:45:35;12.50;99.90
25248;DHT22;13191;47.472;11.214;2022-10-26T09:48:06;12.60;99.90
25248;DHT22;13191;47.472;11.214;2022-10-26T09:50:36;12.60;99.90
25248;DHT22;13191;47.472;11.214;2022-10-26T09:53:02;12.70;99.90
25248;DHT22;13191;47.472;11.214;2022-10-26T09:55:29;12.80;99.90
25248;DHT22;13191;47.472;11.214;2022-10-26T09:57:56;12.80;99.90
25248;DHT22;13191;47.472;11.214;2022-10-26T10:00:23;12.80;99.90
25248;DHT22;13191;47.472;11.214;2022-10-26T10:02:50;12.90;99.90
25248;DHT22;13191;47.472;11.214;2022-10-26T10:07:45;13.10;99.90
25248;DHT22;13191;47.472;11.214;2022-10-26T10:10:15;13.10;99.90
25248;DHT22;13191;47.472;11.214;2022-10-26T10:12:40;13.20;99.90
25248;DHT22;13191;47.472;11.214;2022-10-26T10:15:15;13.40;99.90
25248;DHT22;13191;47.472;11.214;2022-10-26T10:17:41;13.50;99.90
25248;DHT22;13191;47.472;11.214;2022-10-26T10:20:16;13.60;99.90
25248;DHT22;13191;47.472;11.214;2022-10-26T10:22:58;13.70;99.90
25248;DHT22;13191;47.472;11.214;2022-10-26T10:25:32;13.80;99.90
25248;DHT22;13191;47.472;11.214;2022-10-26T10:27:57;13.90;99.90
25248;DHT22;13191;47.472;11.214;2022-10-26T10:30:31;14.00;99.90
25248;DHT22;13191;47.472;11.214;2022-10-26T10:33:05;14.00;99.90
25248;DHT22;13191;47.472;11.214;2022-10-26T10:35:30;14.10;99.90
25248;DHT22;13191;47.472;11.214;2022-10-26T10:37:56;14.20;99.90
25248;DHT22;13191;47.472;11.214;2022-10-26T10:40:23;14.20;99.90
25248;DHT22;13191;47.472;11.214;2022-10-26T10:42:50;14.30;99.90
25248;DHT22;13191;47.472;11.214;2022-10-26T10:45:18;14.30;99.90
25248;DHT22;13191;47.472;11.214;2022-10-26T10:47:49;14.30;99.90
25248;DHT22;13191;47.472;11.214;2022-10-26T10:50:22;14.40;99.90
25248;DHT22;13191;47.472;11.214;2022-10-26T10:52:47;14.40;99.90
25248;DHT22;13191;47.472;11.214;2022-10-26T11:00:23;14.40;99.90
25248;DHT22;13191;47.472;11.214;2022-10-26T11:03:01;14.40;99.90
25248;DHT22;13191;47.472;11.214;2022-10-26T11:08:24;14.50;99.90
25248;DHT22;13191;47.472;11.214;2022-10-26T11:13:42;14.40;99.90
25248;DHT22;13191;47.472;11.214;2022-10-26T11:16:15;14.50;99.90
25248;DHT22;13191;47.472;11.214;2022-10-26T11:18:55;14.50;99.90
25248;DHT22;13191;47.472;11.214;2022-10-26T11:21:28;14.40;99.90
25248;DHT22;13191;47.472;11.214;2022-10-26T11:24:02;14.40;99.90
25248;DHT22;13191;47.472;11.214;2022-10-26T11:26:45;14.40;99.90
25248;DHT22;13191;47.472;11.214;2022-10-26T11:32:29;14.60;99.90
25248;DHT22;13191;47.472;11.214;2022-10-26T11:34:58;14.60;99.90
25248;DHT22;13191;47.472;11.214;2022-10-26T11:37:44;14.70;99.90
25248;DHT22;13191;47.472;11.214;2022-10-26T11:40:32;14.80;99.90
25248;DHT22;13191;47.472;11.214;2022-10-26T11:43:02;14.80;99.90
25248;DHT22;13191;47.472;11.214;2022-10-26T11:45:30;14.90;99.90
25248;DHT22;13191;47.472;11.214;2022-10-26T11:48:00;14.90;99.90
25248;DHT22;13191;47.472;11.214;2022-10-26T11:50:35;14.90;99.90
25248;DHT22;13191;47.472;11.214;2022-10-26T11:53:07;15.00;99.90
25248;DHT22;13191;47.472;11.214;2022-10-26T11:55:34;15.00;99.90
25248;DHT22;13191;47.472;11.214;2022-10-26T11:58:00;15.10;99.90
25248;DHT22;13191;47.472;11.214;2022-10-26T12:00:27;15.20;99.90
25248;DHT22;13191;47.472;11.214;2022-10-26T12:03:01;15.30;99.90
25248;DHT22;13191;47.472;11.214;2022-10-26T12:07:57;15.50;99.90
25248;DHT22;13191;47.472;11.214;2022-10-26T12:12:53;15.50;99.90
25248;DHT22;13191;47.472;11.214;2022-10-26T12:15:24;15.60;99.90
25248;DHT22;13191;47.472;11.214;2022-10-26T12:18:05;15.60;99.90
25248;DHT22;13191;47.472;11.214;2022-10-26T12:23:10;15.80;99.90
25248;DHT22;13191;47.472;11.214;2022-10-26T12:25:36;15.80;99.90
25248;DHT22;13191;47.472;11.214;2022-10-26T12:28:02;15.90;99.90
25248;DHT22;13191;47.472;11.214;2022-10-26T12:30:31;16.10;99.90
25248;DHT22;13191;47.472;11.214;2022-10-26T12:32:58;16.20;99.90
25248;DHT22;13191;47.472;11.214;2022-10-26T12:38:26;16.50;99.90
25248;DHT22;13191;47.472;11.214;2022-10-26T12:48:43;17.20;99.90
25248;DHT22;13191;47.472;11.214;2022-10-26T12:54:30;17.40;99.90
25248;DHT22;13191;47.472;11.214;2022-10-26T13:04:36;17.20;99.90
25248;DHT22;13191;47.472;11.214;2022-10-26T13:07:16;17.20;99.90
25248;DHT22;13191;47.472;11.214;2022-10-26T13:09:43;17.20;99.90
25248;DHT22;13191;47.472;11.214;2022-10-26T13:12:09;17.10;99.90
25248;DHT22;13191;47.472;11.214;2022-10-26T13:14:35;17.10;99.90
25248;DHT22;13191;47.472;11.214;2022-10-26T13:17:03;17.10;99.90
25248;DHT22;13191;47.472;11.214;2022-10-26T13:19:31;17.10;99.90
25248;DHT22;13191;47.472;11.214;2022-10-26T13:21:57;17.10;99.90
25248;DHT22;13191;47.472;11.214;2022-10-26T13:24:24;17.10;99.90
25248;DHT22;13191;47.472;11.214;2022-10-26T13:27:26;17.20;99.90
25248;DHT22;13191;47.472;11.214;2022-10-26T13:32:26;17.10;99.90
25248;DHT22;13191;47.472;11.214;2022-10-26T13:34:51;17.20;99.90
25248;DHT22;13191;47.472;11.214;2022-10-26T13:37:20;17.20;99.90
25248;DHT22;13191;47.472;11.214;2022-10-26T13:39:48;17.20;99.90
25248;DHT22;13191;47.472;11.214;2022-10-26T13:42:18;17.30;99.90
25248;DHT22;13191;47.472;11.214;2022-10-26T13:44:47;17.30;99.90
25248;DHT22;13191;47.472;11.214;2022-10-26T13:49:59;17.30;99.90
25248;DHT22;13191;47.472;11.214;2022-10-26T13:52:32;17.30;99.90
25248;DHT22;13191;47.472;11.214;2022-10-26T13:54:59;17.30;99.90
25248;DHT22;13191;47.472;11.214;2022-10-26T13:57:36;17.40;99.90
25248;DHT22;13191;47.472;11.214;2022-10-26T14:00:07;17.50;99.90
25248;DHT22;13191;47.472;11.214;2022-10-26T14:02:33;17.50;99.90
25248;DHT22;13191;47.472;11.214;2022-10-26T14:04:59;17.50;99.90
25248;DHT22;13191;47.472;11.214;2022-10-26T14:07:28;17.60;99.90
25248;DHT22;13191;47.472;11.214;2022-10-26T14:09:56;17.50;99.90
25248;DHT22;13191;47.472;11.214;2022-10-26T14:12:25;17.60;99.90
25248;DHT22;13191;47.472;11.214;2022-10-26T14:14:54;17.60;99.90
25248;DHT22;13191;47.472;11.214;2022-10-26T14:17:21;17.60;99.90
25248;DHT22;13191;47.472;11.214;2022-10-26T14:19:49;17.60;99.90
25248;DHT22;13191;47.472;11.214;2022-10-26T14:22:19;17.70;99.90
25248;DHT22;13191;47.472;11.214;2022-10-26T14:24:49;17.70;99.90
25248;DHT22;13191;47.472;11.214;2022-10-26T14:27:19;17.70;99.90
25248;DHT22;13191;47.472;11.214;2022-10-26T14:29:45;17.70;99.90
25248;DHT22;13191;47.472;11.214;2022-10-26T14:32:27;17.60;99.90
25248;DHT22;13191;47.472;11.214;2022-10-26T14:34:53;17.70;99.90
25248;DHT22;13191;47.472;11.214;2022-10-26T14:37:28;17.70;99.90
25248;DHT22;13191;47.472;11.214;2022-10-26T14:39:54;17.80;99.90
25248;DHT22;13191;47.472;11.214;2022-10-26T14:42:33;17.80;99.90
25248;DHT22;13191;47.472;11.214;2022-10-26T14:44:59;17.80;99.90
25248;DHT22;13191;47.472;11.214;2022-10-26T14:47:25;17.80;99.90
25248;DHT22;13191;47.472;11.214;2022-10-26T14:49:51;17.80;99.90
25248;DHT22;13191;47.472;11.214;2022-10-26T14:52:25;17.80;99.90
25248;DHT22;13191;47.472;11.214;2022-10-26T14:54:58;17.80;99.90
25248;DHT22;13191;47.472;11.214;2022-10-26T14:57:28;17.80;99.90
25248;DHT22;13191;47.472;11.214;2022-10-26T15:00:10;17.80;99.90
25248;DHT22;13191;47.472;11.214;2022-10-26T15:02:38;17.70;99.90
25248;DHT22;13191;47.472;11.214;2022-10-26T15:05:25;17.60;99.90
25248;DHT22;13191;47.472;11.214;2022-10-26T15:07:50;17.60;99.90
25248;DHT22;13191;47.472;11.214;2022-10-26T15:15:44;17.50;99.90
25248;DHT22;13191;47.472;11.214;2022-10-26T15:18:20;17.50;99.90
25248;DHT22;13191;47.472;11.214;2022-10-26T15:20:47;17.50;99.90
25248;DHT22;13191;47.472;11.214;2022-10-26T15:23:13;17.40;99.90
25248;DHT22;13191;47.472;11.214;2022-10-26T15:25:39;17.40;99.90
25248;DHT22;13191;47.472;11.214;2022-10-26T15:28:10;17.40;99.90
25248;DHT22;13191;47.472;11.214;2022-10-26T15:30:36;17.40;99.90
25248;DHT22;13191;47.472;11.214;2022-10-26T15:33:20;17.30;99.90
25248;DHT22;13191;47.472;11.214;2022-10-26T15:35:46;17.30;99.90
25248;DHT22;13191;47.472;11.214;2022-10-26T15:38:11;17.20;99.90
25248;DHT22;13191;47.472;11.214;2022-10-26T15:40:40;17.10;99.90
25248;DHT22;13191;47.472;11.214;2022-10-26T15:43:08;17.00;99.90
25248;DHT22;13191;47.472;11.214;2022-10-26T15:45:35;17.00;99.90
25248;DHT22;13191;47.472;11.214;2022-10-26T15:48:23;16.90;99.90
25248;DHT22;13191;47.472;11.214;2022-10-26T15:50:47;16.80;99.90
25248;DHT22;13191;47.472;11.214;2022-10-26T15:53:15;16.70;99.90
25248;DHT22;13191;47.472;11.214;2022-10-26T15:55:42;16.60;99.90
25248;DHT22;13191;47.472;11.214;2022-10-26T15:58:08;16.60;99.90
25248;DHT22;13191;47.472;11.214;2022-10-26T16:00:33;16.60;99.90
25248;DHT22;13191;47.472;11.214;2022-10-26T16:02:59;16.50;99.90
25248;DHT22;13191;47.472;11.214;2022-10-26T16:05:26;16.30;99.90
25248;DHT22;13191;47.472;11.214;2022-10-26T16:07:51;16.30;99.90
25248;DHT22;13191;47.472;11.214;2022-10-26T16:10:19;16.30;99.90
25248;DHT22;13191;47.472;11.214;2022-10-26T16:12:45;16.20;99.90
25248;DHT22;13191;47.472;11.214;2022-10-26T16:15:18;16.10;99.90
25248;DHT22;13191;47.472;11.214;2022-10-26T16:17:44;16.10;99.90
25248;DHT22;13191;47.472;11.214;2022-10-26T16:20:14;16.00;99.90
25248;DHT22;13191;47.472;11.214;2022-10-26T16:22:40;16.00;99.90
25248;DHT22;13191;47.472;11.214;2022-10-26T16:25:11;15.90;99.90
25248;DHT22;13191;47.472;11.214;2022-10-26T16:27:36;15.90;99.90
25248;DHT22;13191;47.472;11.214;2022-10-26T16:30:02;15.80;99.90
25248;DHT22;13191;47.472;11.214;2022-10-26T16:32:27;15.80;99.90
25248;DHT22;13191;47.472;11.214;2022-10-26T16:34:53;15.80;99.90
25248;DHT22;13191;47.472;11.214;2022-10-26T16:37:18;15.60;99.90
25248;DHT22;13191;47.472;11.214;2022-10-26T16:39:44;15.60;99.90
25248;DHT22;13191;47.472;11.214;2022-10-26T16:42:09;15.50;99.90
25248;DHT22;13191;47.472;11.214;2022-10-26T16:44:35;15.50;99.90
25248;DHT22;13191;47.472;11.214;2022-10-26T16:47:02;15.40;99.90
25248;DHT22;13191;47.472;11.214;2022-10-26T16:49:27;15.20;99.90
25248;DHT22;13191;47.472;11.214;2022-10-26T16:51:53;14.80;99.90
25248;DHT22;13191;47.472;11.214;2022-10-26T16:54:18;14.60;99.90
25248;DHT22;13191;47.472;11.214;2022-10-26T16:56:44;14.60;99.90
25248;DHT22;13191;47.472;11.214;2022-10-26T16:59:09;14.60;99.90
25248;DHT22;13191;47.472;11.214;2022-10-26T17:01:35;14.60;99.90
25248;DHT22;13191;47.472;11.214;2022-10-26T17:04:00;14.50;99.90
25248;DHT22;13191;47.472;11.214;2022-10-26T17:06:27;14.50;99.90
25248;DHT22;13191;47.472;11.214;2022-10-26T17:08:53;14.40;99.90
25248;DHT22;13191;47.472;11.214;2022-10-26T17:11:20;14.30;99.90
25248;DHT22;13191;47.472;11.214;2022-10-26T17:13:46;14.10;99.90
25248;DHT22;13191;47.472;11.214;2022-10-26T17:16:12;14.20;99.90
25248;DHT22;13191;47.472;11.214;2022-10-26T17:18:41;14.10;99.90